createdAt,value
2018-06-15T00:00:12.705Z,18.50
2018-06-15T00:02:41.054Z,19.40
2018-06-15T00:05:09.356Z,19.03
2018-06-15T00:07:37.677Z,18.63
2018-06-15T00:10:05.980Z,19.70
2018-06-15T00:12:34.273Z,18.33
2018-06-15T00:15:02.612Z,19.10
2018-06-15T00:17:30.913Z,18.63
2018-06-15T00:19:59.245Z,19.77
2018-06-15T00:22:27.275Z,19.43
2018-06-15T00:24:55.591Z,19.33
2018-06-15T00:27:23.888Z,20.13
2018-06-15T00:29:52.214Z,22.50
2018-06-15T00:32:20.547Z,21.83
2018-06-15T00:34:48.868Z,23.10
2018-06-15T00:37:17.165Z,22.33
2018-06-15T00:39:45.472Z,22.00
2018-06-15T00:42:13.777Z,24.30
2018-06-15T00:44:42.099Z,24.77
2018-06-15T00:47:10.402Z,23.37
2018-06-15T00:49:38.746Z,22.53
2018-06-15T00:52:07.049Z,23.17
2018-06-15T00:54:35.373Z,23.80
2018-06-15T00:57:15.131Z,22.03
2018-06-15T00:59:43.458Z,23.17
2018-06-15T01:02:11.752Z,22.40
2018-06-15T01:04:40.095Z,20.10
2018-06-15T01:07:08.404Z,20.80
2018-06-15T01:09:36.728Z,21.67
2018-06-15T01:12:05.367Z,23.10
2018-06-15T01:14:33.860Z,24.93
2018-06-15T01:17:02.450Z,21.57
2018-06-15T01:19:30.799Z,20.37
2018-06-15T01:21:59.099Z,21.37
2018-06-15T01:24:27.413Z,22.40
2018-06-15T01:26:55.721Z,21.30
2018-06-15T01:29:24.041Z,22.50
2018-06-15T01:31:52.339Z,23.37
2018-06-15T01:34:20.673Z,24.47
2018-06-15T01:36:48.980Z,29.77
2018-06-15T01:39:17.293Z,32.10
2018-06-15T01:41:45.596Z,30.33
2018-06-15T01:44:13.913Z,30.30
2018-06-15T01:46:42.209Z,29.20
2018-06-15T01:49:10.554Z,27.40
2018-06-15T01:51:38.869Z,26.20
2018-06-15T01:54:07.210Z,26.40
2018-06-15T01:56:35.536Z,24.57
2018-06-15T01:59:03.962Z,24.97
2018-06-15T02:01:32.295Z,22.30
2018-06-15T02:04:00.602Z,21.40
2018-06-15T02:06:28.929Z,20.03
2018-06-15T02:08:57.269Z,23.20
2018-06-15T02:11:27.793Z,20.93
2018-06-15T02:13:56.105Z,21.73
2018-06-15T02:16:24.465Z,23.33
2018-06-15T02:18:52.795Z,20.47
2018-06-15T02:21:21.151Z,21.37
2018-06-15T02:23:49.650Z,21.50
2018-06-15T02:26:18.039Z,23.40
2018-06-15T02:28:46.447Z,22.67
2018-06-15T02:31:14.800Z,21.37
2018-06-15T02:33:43.139Z,23.13
2018-06-15T02:36:11.535Z,22.07
2018-06-15T02:38:39.883Z,21.27
2018-06-15T02:41:08.240Z,22.30
2018-06-15T02:43:36.691Z,23.37
2018-06-15T02:46:05.079Z,22.03
2018-06-15T02:48:33.418Z,21.10
2018-06-15T02:51:01.751Z,21.77
2018-06-15T02:53:30.137Z,23.60
2018-06-15T02:55:58.523Z,23.43
2018-06-15T02:58:26.846Z,24.30
2018-06-15T03:00:55.214Z,25.07
2018-06-15T03:03:23.539Z,24.97
2018-06-15T03:05:51.883Z,22.77
2018-06-15T03:08:20.205Z,23.70
2018-06-15T03:10:48.567Z,23.80
2018-06-15T03:13:16.887Z,26.50
2018-06-15T03:15:45.243Z,28.47
2018-06-15T03:18:13.767Z,23.90
2018-06-15T03:20:42.116Z,25.20
2018-06-15T03:23:10.444Z,26.00
2018-06-15T03:25:38.789Z,23.87
2018-06-15T03:28:07.112Z,24.87
2018-06-15T03:30:35.463Z,23.03
2018-06-15T03:33:03.786Z,22.63
2018-06-15T03:35:32.130Z,23.00
2018-06-15T03:38:00.452Z,23.17
2018-06-15T03:40:28.844Z,22.77
2018-06-15T03:42:57.175Z,24.67
2018-06-15T03:45:25.527Z,25.10
2018-06-15T03:47:53.848Z,23.77
2018-06-15T03:50:22.239Z,24.77
2018-06-15T03:52:50.571Z,26.30
2018-06-15T03:55:18.938Z,24.40
2018-06-15T03:57:47.286Z,24.73
2018-06-15T04:00:15.626Z,25.33
2018-06-15T04:02:43.971Z,23.97
2018-06-15T04:05:12.312Z,24.53
2018-06-15T04:07:40.788Z,24.50
2018-06-15T04:10:09.136Z,24.73
2018-06-15T04:12:37.475Z,23.93
2018-06-15T04:15:05.803Z,25.60
2018-06-15T04:17:34.155Z,24.57
2018-06-15T04:20:02.508Z,24.73
2018-06-15T04:22:30.840Z,25.20
2018-06-15T04:24:59.176Z,27.27
2018-06-15T04:27:27.519Z,27.90
2018-06-15T04:29:55.835Z,28.30
2018-06-15T04:32:24.355Z,28.60
2018-06-15T04:34:52.681Z,29.10
2018-06-15T04:37:21.040Z,26.77
2018-06-15T04:39:49.380Z,28.53
2018-06-15T04:42:17.731Z,25.80
2018-06-15T04:44:46.065Z,27.90
2018-06-15T04:47:14.418Z,26.13
2018-06-15T04:49:42.834Z,26.30
2018-06-15T04:52:11.177Z,26.40
2018-06-15T04:54:39.500Z,30.33
2018-06-15T04:57:07.842Z,28.83
2018-06-15T04:59:36.159Z,27.20
2018-06-15T05:02:04.503Z,29.23
2018-06-15T05:04:32.852Z,29.00
2018-06-15T05:07:01.195Z,29.40
2018-06-15T05:09:29.527Z,29.80
2018-06-15T05:11:57.863Z,29.27
2018-06-15T05:14:26.190Z,29.10
2018-06-15T05:16:54.527Z,27.70
2018-06-15T05:19:22.855Z,28.27
2018-06-15T05:21:51.199Z,27.87
2018-06-15T05:24:19.526Z,25.83
2018-06-15T05:26:47.867Z,24.83
2018-06-15T05:29:16.191Z,26.17
2018-06-15T05:31:44.527Z,25.70
2018-06-15T05:34:12.974Z,26.73
2018-06-15T05:36:41.331Z,25.20
2018-06-15T05:39:10.771Z,25.60
2018-06-15T05:41:39.150Z,26.20
2018-06-15T05:44:07.555Z,26.37
2018-06-15T05:46:35.896Z,25.20
2018-06-15T05:49:04.649Z,25.80
2018-06-15T05:51:33.003Z,24.47
2018-06-15T05:54:01.371Z,27.53
2018-06-15T05:56:29.718Z,24.07
2018-06-15T05:58:58.039Z,24.20
2018-06-15T06:01:26.398Z,25.23
2018-06-15T06:03:54.812Z,26.03
2018-06-15T06:06:23.147Z,26.57
2018-06-15T06:08:51.490Z,26.80
2018-06-15T06:11:19.940Z,27.50
2018-06-15T06:13:48.286Z,29.93
2018-06-15T06:16:16.612Z,28.30
2018-06-15T06:18:44.954Z,28.07
2018-06-15T06:21:13.284Z,29.00
2018-06-15T06:23:41.739Z,28.87
2018-06-15T06:26:10.422Z,28.27
2018-06-15T06:28:38.768Z,26.60
2018-06-15T06:31:07.624Z,28.60
2018-06-15T06:33:35.963Z,27.73
2018-06-15T06:36:04.335Z,27.93
2018-06-15T06:38:32.679Z,27.53
2018-06-15T06:41:01.003Z,25.80
2018-06-15T06:43:29.331Z,23.57
2018-06-15T06:45:57.657Z,23.00
2018-06-15T06:48:26.043Z,23.93
2018-06-15T06:50:54.376Z,21.73
2018-06-15T06:53:22.719Z,21.20
2018-06-15T06:55:51.043Z,23.57
2018-06-15T06:58:19.387Z,21.20
2018-06-15T07:00:47.722Z,21.40
2018-06-15T07:03:16.075Z,23.00
2018-06-15T07:05:44.411Z,22.17
2018-06-15T07:08:12.907Z,20.07
2018-06-15T07:10:41.235Z,21.23
2018-06-15T07:13:09.605Z,20.73
2018-06-15T07:15:37.919Z,21.67
2018-06-15T07:18:06.306Z,22.40
2018-06-15T07:20:34.698Z,22.33
2018-06-15T07:23:03.057Z,21.47
2018-06-15T07:25:31.386Z,19.53
2018-06-15T07:27:59.739Z,20.20
2018-06-15T07:30:28.078Z,21.27
2018-06-15T07:32:56.923Z,20.30
2018-06-15T07:35:25.255Z,20.37
2018-06-15T07:37:54.076Z,19.50
2018-06-15T07:40:22.412Z,19.67
2018-06-15T07:42:50.763Z,20.17
2018-06-15T07:45:19.095Z,22.60
2018-06-15T07:47:47.439Z,20.00
2018-06-15T07:50:15.801Z,23.27
2018-06-15T07:52:44.139Z,22.23
2018-06-15T07:55:12.462Z,22.27
2018-06-15T07:57:40.795Z,20.10
2018-06-15T08:00:09.151Z,21.67
2018-06-15T08:02:37.496Z,19.97
2018-06-15T08:05:05.862Z,21.23
2018-06-15T08:07:34.179Z,20.60
2018-06-15T08:10:02.516Z,20.10
2018-06-15T08:12:30.835Z,19.70
2018-06-15T08:14:59.174Z,18.93
2018-06-15T08:17:27.533Z,19.20
2018-06-15T08:19:55.875Z,19.13
2018-06-15T08:22:24.196Z,19.07
2018-06-15T08:24:52.540Z,17.30
2018-06-15T08:27:20.867Z,16.30
2018-06-15T08:29:49.203Z,16.97
2018-06-15T08:32:17.527Z,16.57
2018-06-15T08:34:45.899Z,15.77
2018-06-15T08:37:14.244Z,15.50
2018-06-15T08:39:42.596Z,15.67
2018-06-15T08:42:10.911Z,15.23
2018-06-15T08:44:39.304Z,14.47
2018-06-15T08:47:07.623Z,15.37
2018-06-15T08:49:35.978Z,15.90
2018-06-15T08:52:04.350Z,15.50
2018-06-15T08:54:32.683Z,16.10
2018-06-15T08:57:01.006Z,15.50
2018-06-15T08:59:29.414Z,14.53
2018-06-15T09:01:57.733Z,14.53
2018-06-15T09:04:26.119Z,14.23
2018-06-15T09:06:54.522Z,14.70
2018-06-15T09:09:22.854Z,14.97
2018-06-15T09:11:51.202Z,15.60
2018-06-15T09:14:19.530Z,15.27
2018-06-15T09:16:47.863Z,15.73
2018-06-15T09:19:16.194Z,15.40
2018-06-15T09:21:44.519Z,14.87
2018-06-15T09:24:12.855Z,15.17
2018-06-15T09:26:41.179Z,14.43
2018-06-15T09:29:09.512Z,15.80
2018-06-15T09:31:37.855Z,14.13
2018-06-15T09:34:06.239Z,14.07
2018-06-15T09:36:34.559Z,15.70
2018-06-15T09:39:02.952Z,14.90
2018-06-15T09:41:31.258Z,14.47
2018-06-15T09:43:59.587Z,12.40
2018-06-15T09:46:27.956Z,13.00
2018-06-15T09:48:56.908Z,13.20
2018-06-15T09:51:25.224Z,12.57
2018-06-15T09:53:53.603Z,12.83
2018-06-15T09:56:21.927Z,13.60
2018-06-15T09:58:53.787Z,14.00
2018-06-15T10:01:22.275Z,13.70
2018-06-15T10:03:50.627Z,14.40
2018-06-15T10:06:19.023Z,13.33
2018-06-15T10:08:47.350Z,11.90
2018-06-15T10:11:15.686Z,12.93
2018-06-15T10:13:44.023Z,13.13
2018-06-15T10:16:12.423Z,12.33
2018-06-15T10:18:40.751Z,12.60
2018-06-15T10:21:09.082Z,13.60
2018-06-15T10:23:37.414Z,12.67
2018-06-15T10:26:05.779Z,12.20
2018-06-15T10:28:34.115Z,12.97
2018-06-15T10:31:02.526Z,12.67
2018-06-15T10:33:30.855Z,12.63
2018-06-15T10:35:59.207Z,14.10
2018-06-15T10:38:27.527Z,13.23
2018-06-15T10:40:55.872Z,12.90
2018-06-15T10:43:24.198Z,11.43
2018-06-15T10:45:52.552Z,13.20
2018-06-15T10:48:21.007Z,11.73
2018-06-15T10:50:49.383Z,13.13
2018-06-15T10:53:17.708Z,11.93
2018-06-15T10:55:46.068Z,13.27
2018-06-15T10:58:14.418Z,10.93
2018-06-15T11:00:42.807Z,11.70
2018-06-15T11:03:11.127Z,9.27
2018-06-15T11:05:39.519Z,10.27
2018-06-15T11:08:07.839Z,9.70
2018-06-15T11:10:36.171Z,9.63
2018-06-15T11:13:04.579Z,9.40
2018-06-15T11:15:32.940Z,8.60
2018-06-15T11:18:01.247Z,8.00
2018-06-15T11:20:29.599Z,7.80
2018-06-15T11:22:57.950Z,7.60
2018-06-15T11:25:26.331Z,7.43
2018-06-15T11:27:54.683Z,7.60
2018-06-15T11:30:23.015Z,7.37
2018-06-15T11:32:51.331Z,6.00
2018-06-15T11:35:19.663Z,6.20
2018-06-15T11:37:47.974Z,6.70
2018-06-15T11:40:16.299Z,6.93
2018-06-15T11:42:44.614Z,6.53
2018-06-15T11:45:13.036Z,6.80
2018-06-15T11:47:41.347Z,6.77
2018-06-15T11:50:09.707Z,5.90
2018-06-15T11:52:38.043Z,5.90
2018-06-15T11:55:06.559Z,6.20
2018-06-15T11:57:34.888Z,5.23
2018-06-15T12:00:03.236Z,5.70
2018-06-15T12:02:31.595Z,5.57
2018-06-15T12:04:59.903Z,4.57
2018-06-15T12:07:28.268Z,4.33
2018-06-15T12:09:56.583Z,4.03
2018-06-15T12:12:24.921Z,4.43
2018-06-15T12:14:53.226Z,4.03
2018-06-15T12:17:21.631Z,5.70
2018-06-15T12:19:49.967Z,4.53
2018-06-15T12:22:18.303Z,5.37
2018-06-15T12:24:46.614Z,5.03
2018-06-15T12:27:15.007Z,5.27
2018-06-15T12:29:43.329Z,4.63
2018-06-15T12:32:11.659Z,4.23
2018-06-15T12:34:40.090Z,4.40
2018-06-15T12:37:08.455Z,5.10
2018-06-15T12:39:36.766Z,4.60
2018-06-15T12:42:05.099Z,3.63
2018-06-15T12:44:33.423Z,4.40
2018-06-15T12:47:01.751Z,4.47
2018-06-15T12:49:30.159Z,3.97
2018-06-15T12:51:58.513Z,4.70
2018-06-15T12:54:26.835Z,4.60
2018-06-15T12:56:55.182Z,4.60
2018-06-15T12:59:23.571Z,4.77
2018-06-15T13:01:52.015Z,4.27
2018-06-15T13:04:20.387Z,4.40
2018-06-15T13:06:48.787Z,4.90
2018-06-15T13:09:17.114Z,4.60
2018-06-15T13:11:45.483Z,5.20
2018-06-15T13:14:13.915Z,4.60
2018-06-15T13:16:42.304Z,5.30
2018-06-15T13:19:10.624Z,4.80
2018-06-15T13:21:38.963Z,5.30
2018-06-15T13:24:07.443Z,5.30
2018-06-15T13:26:35.791Z,5.60
2018-06-15T13:29:04.151Z,4.83
2018-06-15T13:31:32.554Z,4.60
2018-06-15T13:34:00.907Z,4.93
2018-06-15T13:36:29.259Z,5.53
2018-06-15T13:38:57.582Z,4.60
2018-06-15T13:41:25.931Z,5.30
2018-06-15T13:43:54.551Z,4.30
2018-06-15T13:46:22.956Z,4.47
2018-06-15T13:48:51.303Z,4.50
2018-06-15T13:51:19.804Z,4.80
2018-06-15T13:53:48.135Z,4.43
2018-06-15T13:56:16.482Z,4.97
2018-06-15T13:58:44.839Z,3.93
2018-06-15T14:01:13.191Z,4.63
2018-06-15T14:03:41.515Z,4.33
2018-06-15T14:06:09.844Z,4.10
2018-06-15T14:08:38.196Z,4.50
2018-06-15T14:11:06.547Z,3.90
2018-06-15T14:13:34.891Z,3.50
2018-06-15T14:16:03.234Z,3.63
2018-06-15T14:18:31.581Z,3.50
2018-06-15T14:20:59.930Z,3.20
2018-06-15T14:23:28.269Z,2.93
2018-06-15T14:25:56.606Z,2.80
2018-06-15T14:28:24.955Z,3.60
2018-06-15T14:30:53.391Z,3.37
2018-06-15T14:33:21.879Z,3.13
2018-06-15T14:35:50.255Z,3.90
2018-06-15T14:38:18.597Z,3.40
2018-06-15T14:40:47.009Z,3.87
2018-06-15T14:43:15.404Z,3.87
2018-06-15T14:45:43.727Z,3.17
2018-06-15T14:48:12.111Z,3.03
2018-06-15T14:50:40.447Z,3.33
2018-06-15T14:53:08.804Z,2.97
2018-06-15T14:55:37.193Z,3.50
2018-06-15T14:58:05.559Z,3.00
2018-06-15T15:00:33.879Z,3.10
2018-06-15T15:03:02.220Z,3.30
2018-06-15T15:05:30.571Z,3.60
2018-06-15T15:07:58.913Z,3.40
2018-06-15T15:10:27.239Z,3.70
2018-06-15T15:12:55.571Z,3.40
2018-06-15T15:15:23.910Z,3.23
2018-06-15T15:17:52.331Z,3.57
2018-06-15T15:20:20.658Z,3.30
2018-06-15T15:22:48.990Z,2.90
2018-06-15T15:25:17.300Z,3.10
2018-06-15T15:27:45.626Z,3.30
2018-06-15T15:30:13.935Z,3.93
2018-06-15T15:32:42.275Z,3.17
2018-06-15T15:35:10.615Z,3.37
2018-06-15T15:37:38.959Z,3.57
2018-06-15T15:40:07.275Z,4.40
2018-06-15T15:42:35.598Z,2.90
2018-06-15T15:45:04.018Z,3.60
2018-06-15T15:47:32.299Z,4.43
2018-06-15T15:50:00.647Z,3.50
2018-06-15T15:52:28.979Z,3.00
2018-06-15T15:54:57.368Z,3.40
2018-06-15T15:57:25.705Z,2.67
2018-06-15T15:59:54.031Z,3.13
2018-06-15T16:02:22.379Z,2.97
2018-06-15T16:04:50.699Z,2.90
2018-06-15T16:07:19.255Z,2.57
2018-06-15T16:09:47.563Z,2.90
2018-06-15T16:12:15.879Z,2.40
2018-06-15T16:14:44.204Z,2.33
2018-06-15T16:17:12.695Z,2.47
2018-06-15T16:19:41.027Z,2.60
2018-06-15T16:22:09.363Z,3.33
2018-06-15T16:24:37.705Z,2.50
2018-06-15T16:27:06.107Z,3.33
2018-06-15T16:29:34.436Z,3.10
2018-06-15T16:32:02.751Z,3.37
2018-06-15T16:34:31.083Z,3.30
2018-06-15T16:36:59.407Z,2.80
2018-06-15T16:39:27.742Z,3.40
2018-06-15T16:41:56.067Z,3.13
2018-06-15T16:44:24.486Z,3.17
2018-06-15T16:46:52.802Z,3.10
2018-06-15T16:49:21.175Z,3.00
2018-06-15T16:51:49.551Z,3.13
2018-06-15T16:54:17.906Z,3.67
2018-06-15T16:56:46.231Z,2.60
2018-06-15T16:59:14.567Z,3.10
2018-06-15T17:01:42.911Z,3.20
2018-06-15T17:04:11.253Z,2.40
2018-06-15T17:06:39.923Z,3.03
2018-06-15T17:09:09.770Z,2.83
2018-06-15T17:11:38.123Z,2.90
2018-06-15T17:14:06.747Z,3.23
2018-06-15T17:16:35.427Z,3.87
2018-06-15T17:19:03.899Z,2.97
2018-06-15T17:21:32.232Z,3.80
2018-06-15T17:24:00.610Z,2.80
2018-06-15T17:26:28.935Z,3.57
2018-06-15T17:28:57.446Z,3.40
2018-06-15T17:31:25.723Z,3.60
2018-06-15T17:33:54.063Z,3.90
2018-06-15T17:36:22.420Z,3.90
2018-06-15T17:38:50.762Z,4.40
2018-06-15T17:41:19.239Z,3.30
2018-06-15T17:43:47.578Z,3.83
2018-06-15T17:46:15.644Z,3.60
2018-06-15T17:48:43.999Z,3.77
2018-06-15T17:51:12.496Z,4.60
2018-06-15T17:53:40.834Z,3.77
2018-06-15T17:56:09.163Z,3.37
2018-06-15T17:58:37.507Z,3.50
2018-06-15T18:01:06.007Z,3.40
2018-06-15T18:03:34.351Z,3.23
2018-06-15T18:06:02.671Z,3.87
2018-06-15T18:08:30.993Z,4.03
2018-06-15T18:10:59.374Z,4.27
2018-06-15T18:13:27.730Z,3.27
2018-06-15T18:15:56.070Z,4.47
2018-06-15T18:18:24.475Z,4.40
2018-06-15T18:20:52.811Z,3.80
2018-06-15T18:23:21.156Z,3.10
2018-06-15T18:25:49.495Z,3.43
2018-06-15T18:28:17.830Z,2.90
2018-06-15T18:30:46.263Z,2.87
2018-06-15T18:33:14.586Z,3.40
2018-06-15T18:35:42.926Z,3.47
2018-06-15T18:38:11.280Z,2.97
2018-06-15T18:40:39.689Z,3.53
2018-06-15T18:43:08.025Z,4.00
2018-06-15T18:45:36.406Z,3.30
2018-06-15T18:48:04.783Z,3.60
2018-06-15T18:50:33.147Z,3.53
2018-06-15T18:53:01.483Z,3.60
2018-06-15T18:55:29.842Z,3.50
2018-06-15T18:57:58.158Z,3.57
2018-06-15T19:00:26.507Z,3.20
2018-06-15T19:02:54.831Z,4.10
2018-06-15T19:05:23.175Z,3.50
2018-06-15T19:07:51.635Z,3.77
2018-06-15T19:10:19.974Z,3.43
2018-06-15T19:12:48.318Z,3.37
2018-06-15T19:15:16.660Z,3.20
2018-06-15T19:17:44.970Z,3.03
2018-06-15T19:20:13.306Z,2.70
2018-06-15T19:22:41.626Z,3.30
2018-06-15T19:25:09.959Z,3.30
2018-06-15T19:27:38.294Z,3.10
2018-06-15T19:30:06.635Z,3.20
2018-06-15T19:32:34.960Z,2.97
2018-06-15T19:35:03.320Z,3.30
2018-06-15T19:37:31.638Z,3.07
2018-06-15T19:40:00.135Z,3.93
2018-06-15T19:42:28.463Z,3.77
2018-06-15T19:44:56.805Z,3.13
2018-06-15T19:47:25.190Z,3.47
2018-06-15T19:49:53.543Z,3.03
2018-06-15T19:52:21.853Z,3.70
2018-06-15T19:54:50.219Z,4.17
2018-06-15T19:57:18.618Z,4.10
2018-06-15T19:59:46.947Z,3.67
2018-06-15T20:02:15.278Z,4.07
2018-06-15T20:04:43.760Z,3.97
2018-06-15T20:07:12.087Z,4.17
2018-06-15T20:09:40.582Z,3.77
2018-06-15T20:12:08.931Z,3.80
2018-06-15T20:14:37.240Z,4.00
2018-06-15T20:17:05.762Z,3.30
2018-06-15T20:19:34.167Z,3.07
2018-06-15T20:22:02.511Z,3.10
2018-06-15T20:24:30.867Z,3.70
2018-06-15T20:26:59.199Z,4.30
2018-06-15T20:29:27.640Z,3.50
2018-06-15T20:31:56.024Z,4.30
2018-06-15T20:34:24.347Z,3.90
2018-06-15T20:36:52.676Z,4.07
2018-06-15T20:39:20.997Z,4.50
2018-06-15T20:41:49.424Z,5.27
2018-06-15T20:44:17.695Z,4.43
2018-06-15T20:46:46.031Z,4.27
2018-06-15T20:49:14.375Z,4.17
2018-06-15T20:51:42.710Z,4.50
2018-06-15T20:54:11.036Z,4.80
2018-06-15T20:56:39.374Z,4.03
2018-06-15T20:59:07.691Z,4.10
2018-06-15T21:01:36.024Z,3.97
2018-06-15T21:04:04.347Z,3.67
2018-06-15T21:06:32.684Z,3.67
2018-06-15T21:09:01.018Z,3.50
2018-06-15T21:11:29.382Z,3.80
2018-06-15T21:13:57.700Z,3.93
2018-06-15T21:16:26.035Z,4.40
2018-06-15T21:18:54.372Z,3.63
2018-06-15T21:21:22.710Z,4.03
2018-06-15T21:23:51.024Z,3.53
2018-06-15T21:26:19.374Z,4.33
2018-06-15T21:28:47.696Z,4.13
2018-06-15T21:31:16.031Z,4.40
2018-06-15T21:33:44.348Z,4.50
2018-06-15T21:36:12.688Z,3.70
2018-06-15T21:38:41.158Z,4.67
2018-06-15T21:41:09.583Z,5.80
2018-06-15T21:43:37.903Z,4.60
2018-06-15T21:46:06.385Z,4.70
2018-06-15T21:48:34.930Z,5.00
2018-06-15T21:51:03.287Z,4.90
2018-06-15T21:53:31.603Z,5.40
2018-06-15T21:55:59.943Z,5.30
2018-06-15T21:58:28.279Z,4.20
2018-06-15T22:00:56.623Z,4.80
2018-06-15T22:03:24.947Z,4.90
2018-06-15T22:05:53.295Z,4.70
2018-06-15T22:08:21.630Z,4.97
2018-06-15T22:10:49.951Z,4.60
2018-06-15T22:13:18.303Z,3.97
2018-06-15T22:15:46.630Z,4.70
2018-06-15T22:18:14.967Z,5.53
2018-06-15T22:20:43.287Z,4.90
2018-06-15T22:23:11.628Z,4.83
2018-06-15T22:25:39.955Z,4.57
2018-06-15T22:28:08.291Z,5.23
2018-06-15T22:30:36.615Z,5.80
2018-06-15T22:33:04.956Z,5.00
2018-06-15T22:35:33.379Z,4.57
2018-06-15T22:38:01.731Z,4.53
2018-06-15T22:40:30.164Z,5.13
2018-06-15T22:42:58.505Z,4.90
2018-06-15T22:45:26.830Z,4.90
2018-06-15T22:47:55.170Z,4.60
2018-06-15T22:50:23.509Z,3.87
2018-06-15T22:52:51.842Z,4.60
2018-06-15T22:55:20.175Z,5.43
2018-06-15T22:57:48.507Z,5.00
2018-06-15T23:00:17.592Z,5.20
2018-06-15T23:02:46.215Z,5.30
2018-06-15T23:05:14.533Z,4.63
2018-06-15T23:07:42.879Z,4.87
2018-06-15T23:10:11.196Z,5.10
2018-06-15T23:12:39.539Z,5.40
2018-06-15T23:15:07.859Z,4.80
2018-06-15T23:17:36.204Z,5.20
2018-06-15T23:20:04.555Z,5.50
2018-06-15T23:22:32.891Z,5.10
2018-06-15T23:25:01.211Z,5.10
2018-06-15T23:27:29.547Z,5.53
2018-06-15T23:29:57.867Z,5.00
2018-06-15T23:32:26.419Z,4.83
2018-06-15T23:34:54.735Z,5.60
2018-06-15T23:37:23.071Z,5.27
2018-06-15T23:39:51.385Z,4.70
2018-06-15T23:42:19.743Z,5.57
2018-06-15T23:44:48.079Z,5.03
2018-06-15T23:47:17.303Z,5.47
2018-06-15T23:49:45.639Z,5.60
2018-06-15T23:52:13.975Z,5.20
2018-06-15T23:54:42.290Z,5.60
2018-06-15T23:57:10.630Z,5.43
2018-06-15T23:59:38.950Z,5.73
